Time;durP1;ratioP1;P1;durP2;ratioP2;P2;SDS_P1;SDS_P2;PMS_P1;PMS_P2;Temp;Humidity;BMP_temperature;BMP_pressure;BME280_temperature;BME280_humidity;BME280_pressure;Samples;Min_cycle;Max_cycle;Signal;HPM_P1;HPM_P2
2022/06/03 00:01:43;;;;;;;9.63;8.77;;;10.30;7.30;;;;;;4970752;28;21230;-59
2022/06/03 00:04:46;;;;;;;9.60;8.70;;;10.20;10.50;;;;;;4961931;28;20185;-58
2022/06/03 00:07:30;;;;;;;10.07;9.13;;;10.20;12.30;;;;;;4977779;28;20516;-58
2022/06/03 00:10:06;;;;;;;9.40;8.67;;;10.10;18.00;;;;;;4975940;28;20439;-56
2022/06/03 00:13:04;;;;;;;9.83;9.03;;;10.10;18.20;;;;;;4968774;28;20446;-56
2022/06/03 00:15:41;;;;;;;9.10;8.30;;;10.10;13.30;;;;;;4967973;28;20424;-57
2022/06/03 00:18:34;;;;;;;9.97;9.17;;;10.10;19.20;;;;;;4968205;28;20436;-58
2022/06/03 00:21:04;;;;;;;9.67;8.87;;;10.10;18.50;;;;;;4960705;28;20823;-58
2022/06/03 00:23:54;;;;;;;9.13;8.43;;;9.90;24.30;;;;;;4967157;28;20520;-58
2022/06/03 00:26:37;;;;;;;9.70;8.80;;;9.90;29.10;;;;;;4967494;28;20483;-58
2022/06/03 00:29:18;;;;;;;10.20;9.30;;;9.80;34.50;;;;;;4970614;28;20433;-58
2022/06/03 00:32:21;;;;;;;10.60;9.60;;;9.80;39.60;;;;;;4959846;28;20492;-58
2022/06/03 00:34:59;;;;;;;10.10;9.27;;;9.70;43.50;;;;;;4980567;28;20432;-58
2022/06/03 00:37:49;;;;;;;10.27;9.30;;;9.70;50.40;;;;;;4971906;28;20955;-58
2022/06/03 00:40:29;;;;;;;9.97;9.17;;;9.60;51.40;;;;;;4972914;28;20439;-58
2022/06/03 00:43:16;;;;;;;10.00;9.17;;;9.60;52.50;;;;;;4978435;28;20440;-57
2022/06/03 00:46:20;;;;;;;9.93;9.13;;;9.60;53.80;;;;;;4972735;28;21045;-56
2022/06/03 00:49:12;;;;;;;9.87;9.07;;;9.60;54.60;;;;;;4972835;28;20452;-57
2022/06/03 00:52:22;;;;;;;10.10;9.17;;;9.50;57.60;;;;;;4973001;28;20886;-57
2022/06/03 00:55:16;;;;;;;9.70;8.90;;;9.50;58.20;;;;;;4967177;28;20428;-59
2022/06/03 00:58:01;;;;;;;9.83;8.93;;;9.50;62.80;;;;;;4960447;28;20599;-57
2022/06/03 01:00:40;;;;;;;9.47;8.67;;;9.40;69.40;;;;;;4968304;28;20487;-55
2022/06/03 01:03:11;;;;;;;9.63;8.80;;;9.40;74.30;;;;;;4974088;28;20925;-58
2022/06/03 01:06:03;;;;;;;10.30;9.20;;;9.40;77.20;;;;;;4972381;28;20417;-58
2022/06/03 01:08:37;;;;;;;9.70;8.90;;;9.40;79.90;;;;;;4971452;28;20794;-57
2022/06/03 01:11:06;;;;;;;10.87;9.97;;;9.30;78.40;;;;;;4971320;28;20424;-58
2022/06/03 01:13:58;;;;;;;11.13;10.13;;;9.30;80.10;;;;;;4971528;28;20482;-57
2022/06/03 01:16:27;;;;;;;11.33;10.23;;;9.30;81.50;;;;;;4971402;28;20479;-58
2022/06/03 01:19:03;;;;;;;9.80;8.97;;;9.20;84.10;;;;;;4969676;28;20969;-58
2022/06/03 01:21:34;;;;;;;10.40;9.50;;;9.20;89.00;;;;;;4971991;28;20439;-58
2022/06/03 01:24:19;;;;;;;10.70;9.73;;;9.20;90.00;;;;;;4971224;28;20436;-58
2022/06/03 01:27:05;;;;;;;10.77;9.87;;;9.20;90.50;;;;;;4970404;28;20441;-55
2022/06/03 01:29:57;;;;;;;13.00;10.20;;;9.10;90.50;;;;;;4964863;28;20443;-56
2022/06/03 01:32:49;;;;;;;10.47;9.57;;;9.10;92.60;;;;;;4971356;28;20879;-57
2022/06/03 01:35:24;;;;;;;9.93;9.03;;;9.00;94.10;;;;;;4969585;28;20443;-58
2022/06/03 01:38:13;;;;;;;11.00;10.00;;;8.90;95.70;;;;;;4971380;28;20475;-57
2022/06/03 01:41:06;;;;;;;10.70;9.70;;;8.90;97.20;;;;;;4966562;28;20434;-56
2022/06/03 01:44:08;;;;;;;11.10;10.10;;;8.80;98.50;;;;;;4972637;28;21050;-58
2022/06/03 01:46:42;;;;;;;10.93;9.90;;;8.90;99.90;;;;;;4969273;28;20498;-57
2022/06/03 01:49:32;;;;;;;10.80;9.80;;;8.90;99.90;;;;;;4972263;28;20466;-58
2022/06/03 01:52:30;;;;;;;10.83;9.73;;;8.80;99.90;;;;;;4969910;28;20448;-56
2022/06/03 01:55:08;;;;;;;11.00;10.00;;;8.80;99.90;;;;;;4971673;28;20401;-58
2022/06/03 01:58:01;;;;;;;9.97;9.17;;;8.80;99.90;;;;;;4980750;28;20497;-57
2022/06/03 02:00:37;;;;;;;10.90;9.90;;;8.80;99.90;;;;;;4976620;28;20943;-57
2022/06/03 02:03:23;;;;;;;11.00;10.00;;;8.70;99.90;;;;;;4971650;28;20413;-56
2022/06/03 02:06:11;;;;;;;11.10;10.10;;;8.70;99.90;;;;;;4955729;28;20452;-58
2022/06/03 02:08:51;;;;;;;10.60;9.70;;;8.70;99.90;;;;;;4990201;28;20435;-57
2022/06/03 02:11:40;;;;;;;11.27;10.27;;;8.60;99.90;;;;;;4958210;28;20428;-54
2022/06/03 02:14:28;;;;;;;10.83;9.83;;;8.60;99.90;;;;;;4971947;28;20805;-58
2022/06/03 02:17:23;;;;;;;11.37;10.27;;;8.50;99.90;;;;;;4971916;28;20963;-57
2022/06/03 02:20:00;;;;;;;10.40;9.50;;;8.50;99.90;;;;;;4967577;28;20444;-57
2022/06/03 02:22:44;;;;;;;11.23;10.13;;;8.50;99.90;;;;;;4971755;28;20799;-56
2022/06/03 02:25:27;;;;;;;11.20;9.97;;;8.40;99.90;;;;;;4967987;28;20471;-58
2022/06/03 02:28:02;;;;;;;11.00;10.00;;;8.40;99.90;;;;;;4972100;28;23162;-57
2022/06/03 02:30:43;;;;;;;11.37;10.27;;;8.40;99.90;;;;;;4968622;28;20459;-60
2022/06/03 02:33:21;;;;;;;10.77;9.77;;;8.40;99.90;;;;;;4971824;28;20419;-59
2022/06/03 02:36:11;;;;;;;10.33;9.43;;;8.40;99.90;;;;;;4969136;28;20432;-58
2022/06/03 02:39:01;;;;;;;12.93;9.80;;;8.30;99.90;;;;;;4971933;28;20413;-55
2022/06/03 02:41:30;;;;;;;10.23;9.33;;;8.30;99.90;;;;;;4971283;28;20475;-58
2022/06/03 02:44:23;;;;;;;11.10;10.10;;;8.30;99.90;;;;;;4967343;28;20966;-58
2022/06/03 02:46:58;;;;;;;11.43;10.40;;;8.30;99.90;;;;;;4979257;28;20455;-58
2022/06/03 02:49:37;;;;;;;11.40;10.23;;;8.20;99.90;;;;;;4967200;28;20461;-58
2022/06/03 02:52:21;;;;;;;11.50;10.50;;;8.30;99.90;;;;;;4969721;28;20436;-57
2022/06/03 02:55:06;;;;;;;10.70;9.70;;;8.20;99.90;;;;;;4970913;28;20419;-55
2022/06/03 02:57:40;;;;;;;10.60;9.60;;;8.20;99.90;;;;;;4967255;28;21363;-58
2022/06/03 03:00:19;;;;;;;10.50;9.60;;;8.10;99.90;;;;;;4958844;28;20431;-57
2022/06/03 03:03:07;;;;;;;11.03;10.03;;;8.10;99.90;;;;;;4969689;28;20435;-58
2022/06/03 03:06:14;;;;;;;11.63;10.53;;;8.10;99.90;;;;;;4971161;28;20428;-59
2022/06/03 03:08:52;;;;;;;11.50;10.40;;;8.10;99.90;;;;;;4957296;28;20454;-57
2022/06/03 03:11:37;;;;;;;11.17;10.10;;;8.10;99.90;;;;;;4971155;28;20462;-59
2022/06/03 03:14:25;;;;;;;11.30;10.20;;;8.10;99.90;;;;;;4954223;28;20432;-53
2022/06/03 03:16:53;;;;;;;12.97;10.47;;;8.10;99.90;;;;;;4967767;28;20495;-58
2022/06/03 03:19:43;;;;;;;11.23;10.30;;;8.10;99.90;;;;;;4971039;28;20412;-58
2022/06/03 03:23:01;;;;;;;12.47;11.30;;;8.00;99.90;;;;;;4969338;28;20499;-58
2022/06/03 03:25:45;;;;;;;11.10;10.10;;;8.00;99.90;;;;;;4970150;28;20444;-57
2022/06/03 03:28:38;;;;;;;11.37;10.27;;;8.00;99.90;;;;;;4970611;28;20396;-58
2022/06/03 03:31:28;;;;;;;11.13;9.97;;;8.00;99.90;;;;;;4966490;28;20479;-57
2022/06/03 03:34:14;;;;;;;13.63;10.27;;;8.00;99.90;;;;;;4970751;28;20448;-58
2022/06/03 03:36:51;;;;;;;11.47;10.47;;;8.00;99.90;;;;;;4951367;28;20491;-58
2022/06/03 03:39:53;;;;;;;11.00;10.00;;;8.00;99.90;;;;;;4951618;29;20401;-57
2022/06/03 03:43:02;;;;;;;10.50;9.50;;;8.10;99.90;;;;;;4969071;28;20934;-58
2022/06/03 03:45:51;;;;;;;10.13;9.23;;;8.10;99.90;;;;;;4963867;28;20531;-58
2022/06/03 03:48:38;;;;;;;10.80;9.90;;;8.20;99.90;;;;;;4959973;28;20736;-57
2022/06/03 03:51:28;;;;;;;10.60;9.70;;;8.10;99.90;;;;;;4967927;28;20540;-57
2022/06/03 03:53:54;;;;;;;10.50;9.50;;;8.20;99.90;;;;;;4970084;28;20420;-57
2022/06/03 03:56:57;;;;;;;12.10;10.97;;;8.10;99.90;;;;;;4967816;28;20484;-57
2022/06/03 03:59:37;;;;;;;11.20;10.10;;;8.10;99.90;;;;;;4968024;28;20176;-56
2022/06/03 04:02:05;;;;;;;10.80;9.80;;;8.20;99.90;;;;;;4961699;28;20431;-57
2022/06/03 04:05:23;;;;;;;11.27;10.17;;;8.20;99.90;;;;;;4976988;28;20420;-54
2022/06/03 04:08:08;;;;;;;9.90;8.97;;;8.20;99.90;;;;;;4980459;28;20931;-58
2022/06/03 04:10:50;;;;;;;9.80;8.90;;;8.30;99.90;;;;;;4959162;28;20433;-58
2022/06/03 04:13:28;;;;;;;10.70;9.73;;;8.30;99.90;;;;;;4956426;28;20441;-58
2022/06/03 04:16:12;;;;;;;11.57;10.47;;;8.30;99.90;;;;;;4962689;28;20423;-58
2022/06/03 04:18:44;;;;;;;10.30;9.40;;;8.30;99.90;;;;;;4959995;28;20473;-58
2022/06/03 04:21:12;;;;;;;9.97;8.97;;;8.30;99.90;;;;;;4959649;28;20436;-57
2022/06/03 04:24:08;;;;;;;10.47;9.13;;;8.40;99.90;;;;;;4957622;28;20519;-58
2022/06/03 04:27:08;;;;;;;10.20;9.27;;;8.40;99.90;;;;;;4963385;28;21243;-60
2022/06/03 04:29:45;;;;;;;10.67;9.67;;;8.40;99.90;;;;;;4955304;28;20436;-57
2022/06/03 04:32:30;;;;;;;10.60;9.70;;;8.40;99.90;;;;;;4952060;28;20546;-58
2022/06/03 04:35:25;;;;;;;11.23;9.33;;;8.50;99.90;;;;;;4972848;28;20506;-55
2022/06/03 04:38:10;;;;;;;10.53;9.60;;;8.50;97.60;;;;;;4955390;28;20619;-57
2022/06/03 04:40:47;;;;;;;10.90;9.93;;;8.60;96.90;;;;;;4952886;28;20507;-58
2022/06/03 04:43:32;;;;;;;10.80;9.73;;;8.70;95.20;;;;;;4964241;28;20422;-56
2022/06/03 04:46:31;;;;;;;10.40;9.50;;;8.80;92.70;;;;;;4956429;28;20441;-59
2022/06/03 04:49:24;;;;;;;10.47;9.57;;;8.90;81.90;;;;;;4968471;28;21000;-58
2022/06/03 04:52:36;;;;;;;9.63;8.83;;;9.00;80.60;;;;;;4971195;28;20432;-60
2022/06/03 04:55:34;;;;;;;9.30;8.50;;;9.10;75.20;;;;;;4978391;28;20943;-60
2022/06/03 04:58:20;;;;;;;9.93;9.13;;;9.30;56.80;;;;;;4988167;28;20853;-58
2022/06/03 05:01:10;;;;;;;8.90;8.20;;;9.30;55.40;;;;;;4969023;28;20439;-59
2022/06/03 05:04:00;;;;;;;9.60;8.70;;;9.50;47.50;;;;;;4958778;28;20424;-59
2022/06/03 05:07:04;;;;;;;9.60;8.60;;;9.50;40.20;;;;;;4970977;28;20516;-60
2022/06/03 05:09:41;;;;;;;9.40;8.50;;;9.50;26.40;;;;;;5013954;28;20427;-60
2022/06/03 05:12:51;;;;;;;10.03;8.70;;;9.60;25.60;;;;;;4961368;28;20437;-59
2022/06/03 05:15:51;;;;;;;9.27;8.47;;;9.70;28.00;;;;;;4953241;28;20509;-59
2022/06/03 05:18:42;;;;;;;9.57;8.77;;;9.80;26.20;;;;;;4970611;28;20456;-60
2022/06/03 05:21:11;;;;;;;9.00;8.10;;;9.90;23.60;;;;;;4972162;28;20408;-60
2022/06/03 05:24:00;;;;;;;10.10;8.30;;;10.00;12.90;;;;;;4970764;28;20408;-60
2022/06/03 05:26:38;;;;;;;9.37;8.47;;;10.10;7.90;;;;;;4971645;28;20517;-58
2022/06/03 05:29:28;;;;;;;9.20;8.30;;;10.30;8.00;;;;;;4971771;28;20412;-58
2022/06/03 05:32:31;;;;;;;10.57;8.20;;;10.40;2.70;;;;;;4975323;28;20771;-58
2022/06/03 05:35:19;;;;;;;8.20;7.50;;;10.60;1.00;;;;;;4969671;28;20434;-56
2022/06/03 05:37:47;;;;;;;8.47;7.77;;;10.70;1.00;;;;;;4970976;28;20460;-59
2022/06/03 05:40:47;;;;;;;9.03;8.33;;;10.80;1.00;;;;;;4971510;28;20444;-58
2022/06/03 05:43:22;;;;;;;9.40;8.60;;;10.90;1.00;;;;;;4970408;28;20503;-59
2022/06/03 05:45:59;;;;;;;10.23;9.30;;;11.00;1.00;;;;;;4971418;28;20974;-58
2022/06/03 05:48:37;;;;;;;8.90;7.97;;;11.10;1.00;;;;;;4970397;28;20420;-59
2022/06/03 05:51:37;;;;;;;8.93;8.13;;;11.30;1.00;;;;;;4970439;28;20808;-58
2022/06/03 05:54:08;;;;;;;8.60;8.00;;;11.40;1.00;;;;;;4971540;28;20432;-59
2022/06/03 05:56:52;;;;;;;8.50;7.73;;;11.50;1.00;;;;;;4922860;28;1110630;-57
2022/06/03 05:59:37;;;;;;;8.70;7.90;;;11.60;1.00;;;;;;4972557;28;20191;-58
2022/06/03 06:02:26;;;;;;;8.60;7.90;;;11.80;1.00;;;;;;4983218;28;20440;-56
2022/06/03 06:05:36;;;;;;;8.83;7.90;;;11.90;1.00;;;;;;4971030;28;20416;-58
2022/06/03 06:08:14;;;;;;;7.60;7.00;;;12.10;1.00;;;;;;4963554;28;20424;-56
2022/06/03 06:11:23;;;;;;;8.20;7.50;;;12.20;1.00;;;;;;4971990;28;20471;-59
2022/06/03 06:13:58;;;;;;;8.33;7.63;;;12.40;1.00;;;;;;4983859;28;20436;-58
2022/06/03 06:16:40;;;;;;;7.77;7.20;;;12.60;1.00;;;;;;4972254;28;20522;-59
2022/06/03 06:19:21;;;;;;;7.80;7.20;;;12.70;1.00;;;;;;4971774;28;20460;-57
2022/06/03 06:22:14;;;;;;;8.20;7.40;;;12.80;1.00;;;;;;4972094;28;20448;-58
2022/06/03 06:24:58;;;;;;;7.43;6.83;;;12.90;1.00;;;;;;4970312;28;21127;-59
2022/06/03 06:27:38;;;;;;;7.53;6.67;;;13.10;1.00;;;;;;4970988;28;20439;-58
2022/06/03 06:30:48;;;;;;;7.30;6.80;;;13.30;1.00;;;;;;4965986;28;21085;-59
2022/06/03 06:33:28;;;;;;;7.63;7.03;;;13.40;1.00;;;;;;4961862;28;20495;-57
2022/06/03 06:36:19;;;;;;;7.80;7.20;;;13.60;1.00;;;;;;4969334;28;20911;-60
2022/06/03 06:38:59;;;;;;;6.60;6.20;;;13.80;1.00;;;;;;4960224;28;20413;-60
2022/06/03 06:41:49;;;;;;;7.77;7.27;;;14.00;1.00;;;;;;4951720;28;20436;-59
2022/06/03 06:44:34;;;;;;;7.17;6.57;;;14.20;1.00;;;;;;4953061;28;20453;-60
2022/06/03 06:47:50;;;;;;;6.60;6.13;;;14.40;99.90;;;;;;5002746;28;20429;-58
2022/06/03 06:50:40;;;;;;;6.13;5.73;;;14.60;99.90;;;;;;4992179;28;20435;-58
2022/06/03 06:53:14;;;;;;;6.43;6.03;;;14.80;1.00;;;;;;4977768;28;21091;-60
2022/06/03 06:56:01;;;;;;;5.90;5.50;;;15.10;99.90;;;;;;4971832;28;20447;-56
2022/06/03 06:58:51;;;;;;;6.13;5.63;;;15.40;99.90;;;;;;4977313;28;21095;-60
2022/06/03 07:01:22;;;;;;;5.77;5.43;;;15.60;99.90;;;;;;4964594;28;21038;-60
2022/06/03 07:03:47;;;;;;;5.60;5.20;;;15.90;56.60;;;;;;4969584;28;20899;-60
2022/06/03 07:06:40;;;;;;;5.40;5.10;;;16.10;1.00;;;;;;4970713;28;20476;-60
2022/06/03 07:09:11;;;;;;;6.60;6.00;;;16.40;99.90;;;;;;4974328;28;20205;-54
2022/06/03 07:12:01;;;;;;;5.67;5.37;;;16.70;1.00;;;;;;4970811;28;20441;-60
2022/06/03 07:14:33;;;;;;;5.57;5.17;;;17.00;99.90;;;;;;4969020;28;20518;-60
2022/06/03 07:20:21;;;;;;;5.73;5.43;;;17.60;99.90;;;;;;4968287;28;20436;-59
2022/06/03 07:22:55;;;;;;;5.20;4.90;;;17.90;1.00;;;;;;4969524;28;20480;-59
2022/06/03 07:25:30;;;;;;;5.70;5.30;;;18.00;1.00;;;;;;4966594;28;20432;-60
2022/06/03 07:28:05;;;;;;;5.53;5.20;;;18.20;1.00;;;;;;4968719;28;20444;-60
2022/06/03 07:30:43;;;;;;;5.50;5.20;;;18.50;1.00;;;;;;4967528;28;20424;-60
2022/06/03 07:33:27;;;;;;;5.20;4.90;;;18.70;1.00;;;;;;4970781;28;20439;-60
2022/06/03 07:36:22;;;;;;;5.73;5.40;;;18.90;1.00;;;;;;4959749;28;20420;-60
2022/06/03 07:38:47;;;;;;;7.07;6.67;;;19.10;1.00;;;;;;4970262;28;20448;-60
2022/06/03 07:41:19;;;;;;;5.93;5.60;;;19.20;1.00;;;;;;4970399;28;20873;-60
2022/06/03 07:44:21;;;;;;;6.00;5.60;;;19.40;1.00;;;;;;4970602;28;20189;-60
2022/06/03 07:46:54;;;;;;;5.67;5.37;;;19.60;1.00;;;;;;4971565;28;20470;-59
2022/06/03 07:49:24;;;;;;;5.87;5.57;;;19.70;1.00;;;;;;4978442;28;20502;-60
2022/06/03 07:51:59;;;;;;;6.00;5.70;;;19.90;1.00;;;;;;4967727;28;20543;-60
2022/06/03 07:54:34;;;;;;;6.10;5.80;;;19.90;99.90;;;;;;4968480;28;20813;-60
2022/06/03 07:57:21;;;;;;;6.00;5.70;;;20.10;99.90;;;;;;4976594;28;20497;-60
2022/06/03 07:59:47;;;;;;;6.30;5.90;;;20.30;99.90;;;;;;4967598;28;20931;-60
2022/06/03 08:02:18;;;;;;;6.03;5.73;;;20.40;99.90;;;;;;4956532;28;20448;-60
2022/06/03 08:04:48;;;;;;;6.20;5.80;;;20.50;99.90;;;;;;4969499;28;20571;-56
2022/06/03 08:13:00;;;;;;;6.20;5.80;;;20.90;99.90;;;;;;4969990;28;20768;-60
2022/06/03 08:15:34;;;;;;;6.40;6.00;;;21.10;99.90;;;;;;4969527;28;20952;-59
2022/06/03 08:18:00;;;;;;;5.70;5.40;;;21.20;99.90;;;;;;4972968;28;20476;-60
2022/06/03 08:20:28;;;;;;;6.73;6.43;;;21.30;99.90;;;;;;4963851;28;20461;-60
2022/06/03 08:22:54;;;;;;;5.80;5.50;;;21.60;99.90;;;;;;4969466;28;20484;-60
2022/06/03 08:25:25;;;;;;;6.40;5.90;;;21.70;99.90;;;;;;4969199;28;20933;-59
2022/06/03 08:27:52;;;;;;;6.00;5.70;;;21.80;99.90;;;;;;4968656;28;20434;-60
2022/06/03 08:30:23;;;;;;;8.33;7.83;;;21.90;99.90;;;;;;4958343;28;20533;-60
2022/06/03 08:33:03;;;;;;;5.80;5.50;;;22.00;99.90;;;;;;4957966;28;20426;-60
2022/06/03 08:35:34;;;;;;;5.90;5.60;;;22.20;99.90;;;;;;4952441;28;20554;-60
2022/06/03 08:38:04;;;;;;;6.23;5.93;;;22.30;99.90;;;;;;4955010;28;20541;-60
2022/06/03 08:41:10;;;;;;;5.67;5.37;;;22.60;99.90;;;;;;4955167;28;20426;-60
2022/06/03 08:43:59;;;;;;;6.30;6.00;;;22.70;99.90;;;;;;4969156;28;20447;-60
2022/06/03 08:46:28;;;;;;;6.50;6.20;;;23.00;99.90;;;;;;4975372;28;20451;-60
2022/06/03 08:49:02;;;;;;;6.10;5.70;;;23.30;99.90;;;;;;4969313;28;20435;-57
2022/06/03 08:51:44;;;;;;;6.30;5.90;;;23.40;99.90;;;;;;4972536;28;20459;-55
2022/06/03 08:54:30;;;;;;;5.40;5.20;;;23.60;99.90;;;;;;4974696;28;20902;-56
2022/06/03 08:57:13;;;;;;;6.53;6.23;;;23.90;99.90;;;;;;4966918;28;20614;-58
2022/06/03 08:59:46;;;;;;;5.67;5.37;;;24.10;99.90;;;;;;4971462;28;20424;-58
2022/06/03 09:02:27;;;;;;;6.00;5.67;;;24.40;99.90;;;;;;4972828;28;20416;-58
2022/06/03 09:05:19;;;;;;;5.77;5.47;;;24.70;99.90;;;;;;4964253;28;20447;-58
2022/06/03 09:07:59;;;;;;;5.60;5.30;;;25.10;99.90;;;;;;4970649;28;20429;-58
2022/06/03 09:10:26;;;;;;;6.63;5.80;;;25.50;99.90;;;;;;4987435;28;20433;-59
2022/06/03 09:13:24;;;;;;;6.20;5.90;;;25.50;99.90;;;;;;4970763;28;20964;-58
2022/06/03 09:15:51;;;;;;;5.67;5.37;;;25.90;99.90;;;;;;4994823;28;20456;-57
2022/06/03 09:18:39;;;;;;;6.00;5.70;;;26.40;99.90;;;;;;4964515;28;20518;-58
2022/06/03 09:21:10;;;;;;;4.90;4.70;;;27.00;99.90;;;;;;4959427;28;20469;-57
2022/06/03 09:23:41;;;;;;;6.27;5.77;;;27.20;99.90;;;;;;4971631;28;20498;-58
2022/06/03 09:26:27;;;;;;;6.00;5.70;;;27.50;99.90;;;;;;4971031;28;20435;-59
2022/06/03 09:28:55;;;;;;;5.63;5.33;;;27.60;99.90;;;;;;4971905;28;20996;-59
2022/06/03 09:31:22;;;;;;;5.63;5.43;;;28.00;99.90;;;;;;4971697;28;20412;-59
2022/06/03 09:33:48;;;;;;;5.50;5.13;;;28.40;99.90;;;;;;4970962;28;20452;-59
2022/06/03 09:36:18;;;;;;;5.17;4.93;;;28.80;99.90;;;;;;4972094;28;20464;-59
2022/06/03 09:38:51;;;;;;;6.23;5.83;;;28.90;99.90;;;;;;4972342;28;20522;-58
2022/06/03 09:41:21;;;;;;;6.40;6.10;;;28.70;99.90;;;;;;4972278;28;20411;-59
2022/06/03 09:43:50;;;;;;;5.87;5.47;;;29.20;99.90;;;;;;4965899;28;20453;-59
2022/06/03 09:46:17;;;;;;;6.27;5.87;;;29.40;99.90;;;;;;4984998;28;20490;-60
2022/06/03 09:48:43;;;;;;;5.93;5.43;;;29.30;99.90;;;;;;4967216;28;20472;-59
2022/06/03 09:54:39;;;;;;;5.93;5.63;;;29.90;99.90;;;;;;4988658;28;20406;-60
2022/06/03 09:57:33;;;;;;;5.93;5.63;;;30.00;99.90;;;;;;4978316;28;20866;-58
2022/06/03 10:00:08;;;;;;;5.93;5.73;;;30.20;99.90;;;;;;4970309;28;20529;-59
2022/06/03 10:02:35;;;;;;;6.00;5.50;;;30.30;99.90;;;;;;4970307;28;20420;-59
2022/06/03 10:05:03;;;;;;;5.83;5.53;;;30.10;99.90;;;;;;4970973;28;20518;-59
2022/06/03 10:07:29;;;;;;;5.63;5.37;;;30.30;99.90;;;;;;4966121;28;20471;-58
2022/06/03 10:12:49;;;;;;;5.77;5.37;;;31.30;99.90;;;;;;4970350;28;20490;-59
2022/06/03 10:18:21;;;;;;;6.37;5.97;;;31.60;99.90;;;;;;4969109;28;20483;-58
2022/06/03 10:20:49;;;;;;;5.97;5.67;;;31.30;99.90;;;;;;4970972;28;20429;-59
2022/06/03 10:23:18;;;;;;;6.17;5.87;;;30.80;99.90;;;;;;4971231;28;20431;-59
2022/06/03 10:25:46;;;;;;;6.00;5.70;;;31.00;99.90;;;;;;4964613;28;20424;-59
2022/06/03 10:28:15;;;;;;;6.43;6.03;;;31.50;99.90;;;;;;4971039;28;20974;-58
2022/06/03 10:30:42;;;;;;;6.10;5.80;;;31.60;99.90;;;;;;4971233;28;20420;-58
2022/06/03 10:33:22;;;;;;;6.17;5.80;;;32.00;99.90;;;;;;4970881;28;20438;-59
2022/06/03 10:35:50;;;;;;;6.77;6.37;;;32.00;99.90;;;;;;4968485;28;20444;-59
2022/06/03 10:38:20;;;;;;;6.17;5.87;;;32.00;99.90;;;;;;4970798;28;20479;-58
2022/06/03 10:40:51;;;;;;;6.03;5.73;;;32.70;99.90;;;;;;4970667;28;20496;-58
2022/06/03 10:43:47;;;;;;;6.00;5.70;;;33.40;99.90;;;;;;4966573;28;20432;-58
2022/06/03 10:46:16;;;;;;;6.07;5.77;;;33.30;99.90;;;;;;4977565;28;20482;-59
2022/06/03 10:48:43;;;;;;;6.27;5.90;;;33.70;99.90;;;;;;4969902;28;20990;-58
2022/06/03 10:51:15;;;;;;;5.60;5.30;;;32.90;99.90;;;;;;4970491;28;20420;-58
2022/06/03 11:02:15;;;;;;;5.90;5.60;;;34.80;99.90;;;;;;4970739;28;20439;-58
2022/06/03 11:04:41;;;;;;;6.57;6.27;;;34.70;99.90;;;;;;4970496;28;20431;-59
2022/06/03 11:07:30;;;;;;;6.67;6.27;;;34.70;99.90;;;;;;4976053;28;20448;-60
2022/06/03 11:09:59;;;;;;;6.50;6.20;;;35.00;99.90;;;;;;4970505;28;20192;-59
2022/06/03 11:12:28;;;;;;;6.20;5.90;;;35.20;99.90;;;;;;4960346;28;21699;-59
2022/06/03 11:14:54;;;;;;;6.10;5.80;;;35.40;99.90;;;;;;4968231;28;20447;-59
2022/06/03 11:17:23;;;;;;;6.30;6.00;;;35.60;99.90;;;;;;4966590;28;20483;-57
2022/06/03 11:19:55;;;;;;;5.43;5.23;;;35.80;99.90;;;;;;4960415;28;20433;-59
2022/06/03 11:22:32;;;;;;;6.70;6.37;;;35.90;99.90;;;;;;4961361;28;20516;-59
2022/06/03 11:25:13;;;;;;;6.97;6.50;;;35.80;99.90;;;;;;4957047;28;20428;-59
2022/06/03 11:27:51;;;;;;;6.60;6.20;;;36.20;99.90;;;;;;4964399;28;20434;-59
2022/06/03 11:30:46;;;;;;;6.63;6.17;;;35.80;99.90;;;;;;4967362;28;20412;-59
2022/06/03 11:33:24;;;;;;;6.27;5.97;;;34.60;99.90;;;;;;4952804;28;20424;-59
2022/06/03 11:36:03;;;;;;;6.90;6.60;;;35.00;99.90;;;;;;4968838;28;20423;-59
2022/06/03 11:38:38;;;;;;;6.83;6.43;;;35.70;99.90;;;;;;4969334;28;20417;-59
2022/06/03 11:41:20;;;;;;;6.50;6.20;;;36.20;99.90;;;;;;4970014;28;20412;-60
2022/06/03 11:44:10;;;;;;;6.40;6.10;;;37.00;99.90;;;;;;4969072;28;20916;-60
2022/06/03 11:46:57;;;;;;;6.27;5.97;;;37.50;99.90;;;;;;4961921;28;20448;-60
2022/06/03 11:49:24;;;;;;;7.17;6.87;;;37.00;99.90;;;;;;4974875;28;20464;-59
2022/06/03 11:51:50;;;;;;;6.53;5.93;;;37.20;99.90;;;;;;4977002;28;20480;-60
2022/06/03 11:54:21;;;;;;;6.23;5.93;;;37.30;99.90;;;;;;4961547;28;20436;-60
2022/06/03 11:56:48;;;;;;;6.40;6.10;;;37.60;99.90;;;;;;4966365;28;20516;-59
2022/06/03 11:59:42;;;;;;;6.67;6.37;;;37.30;99.90;;;;;;4969063;28;20417;-60
2022/06/03 12:02:18;;;;;;;6.10;5.90;;;37.00;99.90;;;;;;4969592;28;20945;-60
2022/06/03 12:05:04;;;;;;;6.60;6.30;;;37.70;99.90;;;;;;4968730;28;20447;-60
2022/06/03 12:07:51;;;;;;;6.70;6.40;;;37.80;99.90;;;;;;4986715;28;20422;-60
2022/06/03 12:10:34;;;;;;;6.20;5.90;;;38.10;99.90;;;;;;4968906;28;20459;-60
2022/06/03 12:13:27;;;;;;;6.00;5.70;;;37.70;99.90;;;;;;4974387;28;20459;-60
2022/06/03 12:15:58;;;;;;;7.10;6.73;;;37.70;99.90;;;;;;4964412;28;21160;-60
2022/06/03 12:18:37;;;;;;;5.87;5.47;;;38.00;99.90;;;;;;4955365;28;20527;-60
2022/06/03 12:21:15;;;;;;;6.40;6.10;;;38.20;99.90;;;;;;4969765;28;20431;-60
2022/06/03 12:23:43;;;;;;;6.37;6.07;;;37.80;99.90;;;;;;4963553;28;22259;-60
2022/06/03 12:26:31;;;;;;;6.53;6.23;;;38.00;99.90;;;;;;4963326;28;20946;-61
2022/06/03 12:29:24;;;;;;;6.33;5.93;;;38.40;99.90;;;;;;4973273;28;20487;-60
2022/06/03 12:31:50;;;;;;;6.53;6.13;;;38.40;99.90;;;;;;4973017;28;20420;-60
2022/06/03 12:34:26;;;;;;;6.57;6.27;;;38.00;99.90;;;;;;4972502;28;20459;-60
2022/06/03 12:37:02;;;;;;;6.70;6.40;;;37.70;99.90;;;;;;4973074;28;20200;-60
2022/06/03 12:39:43;;;;;;;6.50;6.13;;;37.50;99.90;;;;;;4971923;28;20444;-60
2022/06/03 12:42:37;;;;;;;6.00;5.80;;;37.80;99.90;;;;;;4973184;28;20520;-60
2022/06/03 12:45:06;;;;;;;6.70;6.40;;;38.40;99.90;;;;;;4972654;28;20502;-60
2022/06/03 12:47:31;;;;;;;5.90;5.60;;;38.50;99.90;;;;;;4971940;28;20460;-60
2022/06/03 12:50:23;;;;;;;6.20;6.00;;;39.10;99.90;;;;;;4973041;28;20474;-60
2022/06/03 12:52:57;;;;;;;6.27;5.97;;;38.60;99.90;;;;;;4972844;28;20247;-60
2022/06/03 12:55:42;;;;;;;6.53;6.23;;;38.00;99.90;;;;;;4973000;28;20939;-60
2022/06/03 12:58:13;;;;;;;6.90;6.40;;;38.10;99.90;;;;;;4971704;28;20424;-59
2022/06/03 13:00:57;;;;;;;6.30;6.00;;;36.60;99.90;;;;;;4962988;28;20420;-60
2022/06/03 13:03:23;;;;;;;7.10;6.77;;;36.10;99.90;;;;;;4972545;28;20511;-60
2022/06/03 13:05:54;;;;;;;6.67;6.37;;;36.10;99.90;;;;;;4970221;28;20498;-60
2022/06/03 13:08:28;;;;;;;6.17;5.97;;;36.30;99.90;;;;;;4973587;28;20638;-60
2022/06/03 13:11:06;;;;;;;6.50;6.20;;;35.80;99.90;;;;;;4966081;28;20413;-60
2022/06/03 13:13:32;;;;;;;6.43;6.13;;;35.10;99.90;;;;;;4970339;28;20811;-60
2022/06/03 13:16:17;;;;;;;6.77;6.37;;;35.40;99.90;;;;;;4963318;28;20441;-60
2022/06/03 13:18:54;;;;;;;6.30;6.03;;;36.30;99.90;;;;;;4961529;28;20440;-59
2022/06/03 13:21:48;;;;;;;6.60;6.07;;;37.00;99.90;;;;;;4971748;28;20420;-59
2022/06/03 13:24:22;;;;;;;6.43;6.13;;;36.40;99.90;;;;;;4970733;28;20499;-60
2022/06/03 13:27:03;;;;;;;5.60;5.30;;;37.20;99.90;;;;;;4965816;28;20468;-59
2022/06/03 13:29:55;;;;;;;6.20;5.97;;;37.70;99.90;;;;;;4971731;28;20424;-59
2022/06/03 13:32:36;;;;;;;6.27;5.87;;;37.80;99.90;;;;;;4966344;28;20429;-59
2022/06/03 13:35:04;;;;;;;6.70;6.20;;;38.20;99.90;;;;;;4954661;28;20437;-60
2022/06/03 13:37:46;;;;;;;6.63;6.23;;;38.40;99.90;;;;;;4963665;28;20443;-59
2022/06/03 13:40:31;;;;;;;6.33;6.03;;;38.50;99.90;;;;;;4987133;28;20440;-58
2022/06/03 13:42:59;;;;;;;6.23;5.93;;;38.50;99.90;;;;;;4971414;28;20452;-59
2022/06/03 13:45:51;;;;;;;6.23;5.93;;;38.70;99.90;;;;;;4963042;28;20483;-60
2022/06/03 13:48:26;;;;;;;5.80;5.57;;;38.70;99.90;;;;;;4970789;28;21140;-60
2022/06/03 13:50:52;;;;;;;5.73;5.53;;;38.80;99.90;;;;;;4958641;28;20436;-59
2022/06/03 13:53:31;;;;;;;6.40;6.10;;;38.00;99.90;;;;;;4961979;28;20443;-59
2022/06/03 13:56:07;;;;;;;6.37;6.00;;;37.80;99.90;;;;;;4966616;28;20521;-59
2022/06/03 13:58:41;;;;;;;6.27;5.87;;;38.20;99.90;;;;;;4964577;28;20495;-60
2022/06/03 14:01:22;;;;;;;6.80;6.50;;;38.10;99.90;;;;;;4969822;28;20433;-59
2022/06/03 14:04:03;;;;;;;6.47;6.07;;;37.70;99.90;;;;;;4966793;28;20474;-59
2022/06/03 14:06:41;;;;;;;6.07;5.80;;;37.40;99.90;;;;;;4962522;28;20936;-59
2022/06/03 14:09:21;;;;;;;7.13;6.83;;;37.60;99.90;;;;;;4974100;28;21196;-59
2022/06/03 14:12:05;;;;;;;6.23;5.93;;;37.60;99.90;;;;;;4965347;28;20442;-59
2022/06/03 14:14:43;;;;;;;6.13;5.93;;;36.90;99.90;;;;;;4968184;28;20977;-57
2022/06/03 14:17:28;;;;;;;6.40;6.10;;;36.30;99.90;;;;;;4963069;28;20439;-59
2022/06/03 14:20:44;;;;;;;6.53;6.23;;;35.40;99.90;;;;;;4964132;28;21197;-58
2022/06/03 14:23:14;;;;;;;6.50;6.20;;;35.10;99.90;;;;;;5023219;28;20439;-58
2022/06/03 14:25:51;;;;;;;6.90;6.60;;;34.90;99.90;;;;;;4967337;28;21202;-58
2022/06/03 14:28:42;;;;;;;6.93;6.53;;;34.80;99.90;;;;;;4967461;28;20499;-57